sensor_id;sensor_type;location;lat;lon;timestamp;temperature;humidity
3752;DHT22;50827;47.014;7.652;2023-01-28T00:01:44;1.10;99.90
3752;DHT22;50827;47.014;7.652;2023-01-28T00:04:11;1.10;99.90
3752;DHT22;50827;47.014;7.652;2023-01-28T00:06:38;1.10;99.90
3752;DHT22;50827;47.014;7.652;2023-01-28T00:09:04;1.20;99.90
3752;DHT22;50827;47.014;7.652;2023-01-28T00:11:31;1.20;99.90
3752;DHT22;50827;47.014;7.652;2023-01-28T00:13:59;1.10;99.90
3752;DHT22;50827;47.014;7.652;2023-01-28T00:16:26;1.10;99.90
3752;DHT22;50827;47.014;7.652;2023-01-28T00:18:53;1.10;99.90
3752;DHT22;50827;47.014;7.652;2023-01-28T00:21:20;1.10;99.90
3752;DHT22;50827;47.014;7.652;2023-01-28T00:23:51;1.10;99.90
3752;DHT22;50827;47.014;7.652;2023-01-28T00:26:18;1.10;99.90
3752;DHT22;50827;47.014;7.652;2023-01-28T00:28:45;1.10;99.90
3752;DHT22;50827;47.014;7.652;2023-01-28T00:31:15;1.10;99.90
3752;DHT22;50827;47.014;7.652;2023-01-28T00:33:43;1.20;99.90
3752;DHT22;50827;47.014;7.652;2023-01-28T00:36:11;1.20;99.90
3752;DHT22;50827;47.014;7.652;2023-01-28T00:38:39;1.20;99.90
3752;DHT22;50827;47.014;7.652;2023-01-28T00:41:13;1.20;99.90
3752;DHT22;50827;47.014;7.652;2023-01-28T00:43:41;1.20;99.90
3752;DHT22;50827;47.014;7.652;2023-01-28T00:46:09;1.20;99.90
3752;DHT22;50827;47.014;7.652;2023-01-28T00:48:37;1.30;99.90
3752;DHT22;50827;47.014;7.652;2023-01-28T00:51:05;1.30;99.90
3752;DHT22;50827;47.014;7.652;2023-01-28T00:53:32;1.30;99.90
3752;DHT22;50827;47.014;7.652;2023-01-28T00:56:00;1.20;99.90
3752;DHT22;50827;47.014;7.652;2023-01-28T00:58:27;1.20;99.90
3752;DHT22;50827;47.014;7.652;2023-01-28T01:00:53;1.20;99.90
3752;DHT22;50827;47.014;7.652;2023-01-28T01:03:20;1.10;99.90
3752;DHT22;50827;47.014;7.652;2023-01-28T01:05:46;1.10;99.90
3752;DHT22;50827;47.014;7.652;2023-01-28T01:08:13;1.10;99.90
3752;DHT22;50827;47.014;7.652;2023-01-28T01:10:40;1.10;99.90
3752;DHT22;50827;47.014;7.652;2023-01-28T01:13:06;1.10;99.90
3752;DHT22;50827;47.014;7.652;2023-01-28T01:15:33;1.20;99.90
3752;DHT22;50827;47.014;7.652;2023-01-28T01:18:00;1.20;99.90
3752;DHT22;50827;47.014;7.652;2023-01-28T01:20:28;1.10;99.90
3752;DHT22;50827;47.014;7.652;2023-01-28T01:22:58;1.10;99.90
3752;DHT22;50827;47.014;7.652;2023-01-28T01:25:25;1.10;99.90
3752;DHT22;50827;47.014;7.652;2023-01-28T01:27:52;1.20;99.90
3752;DHT22;50827;47.014;7.652;2023-01-28T01:30:19;1.10;99.90
3752;DHT22;50827;47.014;7.652;2023-01-28T01:32:46;1.10;99.90
3752;DHT22;50827;47.014;7.652;2023-01-28T01:35:13;1.10;99.90
3752;DHT22;50827;47.014;7.652;2023-01-28T01:37:42;1.20;99.90
3752;DHT22;50827;47.014;7.652;2023-01-28T01:40:10;1.20;99.90
3752;DHT22;50827;47.014;7.652;2023-01-28T01:42:37;1.20;99.90
3752;DHT22;50827;47.014;7.652;2023-01-28T01:45:11;1.20;99.90
3752;DHT22;50827;47.014;7.652;2023-01-28T01:47:52;1.20;99.90
3752;DHT22;50827;47.014;7.652;2023-01-28T01:52:53;1.20;99.90
3752;DHT22;50827;47.014;7.652;2023-01-28T01:55:23;1.20;99.90
3752;DHT22;50827;47.014;7.652;2023-01-28T01:57:54;1.20;99.90
3752;DHT22;50827;47.014;7.652;2023-01-28T02:00:21;1.10;99.90
3752;DHT22;50827;47.014;7.652;2023-01-28T02:02:49;1.20;99.90
3752;DHT22;50827;47.014;7.652;2023-01-28T02:05:20;1.20;99.90
3752;DHT22;50827;47.014;7.652;2023-01-28T02:07:49;1.20;99.90
3752;DHT22;50827;47.014;7.652;2023-01-28T02:10:16;1.20;99.90
3752;DHT22;50827;47.014;7.652;2023-01-28T02:12:46;1.20;99.90
3752;DHT22;50827;47.014;7.652;2023-01-28T02:15:21;1.20;99.90
3752;DHT22;50827;47.014;7.652;2023-01-28T02:17:49;1.10;99.90
3752;DHT22;50827;47.014;7.652;2023-01-28T02:20:22;1.00;99.90
3752;DHT22;50827;47.014;7.652;2023-01-28T02:23:06;1.00;99.90
3752;DHT22;50827;47.014;7.652;2023-01-28T02:25:54;1.10;99.90
3752;DHT22;50827;47.014;7.652;2023-01-28T02:31:29;1.20;99.90
3752;DHT22;50827;47.014;7.652;2023-01-28T02:36:40;1.30;99.90
3752;DHT22;50827;47.014;7.652;2023-01-28T02:39:17;1.30;99.90
3752;DHT22;50827;47.014;7.652;2023-01-28T02:42:16;1.20;99.90
3752;DHT22;50827;47.014;7.652;2023-01-28T02:44:43;1.20;99.90
3752;DHT22;50827;47.014;7.652;2023-01-28T02:47:11;1.20;99.90
3752;DHT22;50827;47.014;7.652;2023-01-28T02:50:00;1.20;99.90
3752;DHT22;50827;47.014;7.652;2023-01-28T02:52:29;1.20;99.90
3752;DHT22;50827;47.014;7.652;2023-01-28T02:55:35;1.20;99.90
3752;DHT22;50827;47.014;7.652;2023-01-28T03:03:55;1.10;99.90
3752;DHT22;50827;47.014;7.652;2023-01-28T03:06:44;1.10;99.90
3752;DHT22;50827;47.014;7.652;2023-01-28T03:09:14;1.20;99.90
3752;DHT22;50827;47.014;7.652;2023-01-28T03:14:46;1.10;99.90
3752;DHT22;50827;47.014;7.652;2023-01-28T03:17:44;1.00;99.90
3752;DHT22;50827;47.014;7.652;2023-01-28T03:20:49;1.00;99.90
3752;DHT22;50827;47.014;7.652;2023-01-28T03:23:55;1.10;99.90
3752;DHT22;50827;47.014;7.652;2023-01-28T03:26:56;1.10;99.90
3752;DHT22;50827;47.014;7.652;2023-01-28T03:29:42;1.10;99.90
3752;DHT22;50827;47.014;7.652;2023-01-28T03:32:30;1.00;99.90
3752;DHT22;50827;47.014;7.652;2023-01-28T03:35:17;1.00;99.90
3752;DHT22;50827;47.014;7.652;2023-01-28T03:38:05;1.00;99.90
3752;DHT22;50827;47.014;7.652;2023-01-28T03:40:58;1.10;99.90
3752;DHT22;50827;47.014;7.652;2023-01-28T03:43:29;1.10;99.90
3752;DHT22;50827;47.014;7.652;2023-01-28T03:45:56;1.00;99.90
3752;DHT22;50827;47.014;7.652;2023-01-28T03:48:24;1.00;99.90
3752;DHT22;50827;47.014;7.652;2023-01-28T03:50:53;1.00;99.90
3752;DHT22;50827;47.014;7.652;2023-01-28T03:53:20;1.00;99.90
3752;DHT22;50827;47.014;7.652;2023-01-28T03:55:49;0.90;99.90
3752;DHT22;50827;47.014;7.652;2023-01-28T03:58:17;1.00;99.90
3752;DHT22;50827;47.014;7.652;2023-01-28T04:00:44;1.00;99.90
3752;DHT22;50827;47.014;7.652;2023-01-28T04:03:14;0.90;99.90
3752;DHT22;50827;47.014;7.652;2023-01-28T04:06:08;1.00;99.90
3752;DHT22;50827;47.014;7.652;2023-01-28T04:08:34;1.00;99.90
3752;DHT22;50827;47.014;7.652;2023-01-28T04:11:02;1.00;99.90
3752;DHT22;50827;47.014;7.652;2023-01-28T04:13:41;0.90;99.90
3752;DHT22;50827;47.014;7.652;2023-01-28T04:16:09;1.00;99.90
3752;DHT22;50827;47.014;7.652;2023-01-28T04:18:37;0.90;99.90
3752;DHT22;50827;47.014;7.652;2023-01-28T04:21:04;0.90;99.90
3752;DHT22;50827;47.014;7.652;2023-01-28T04:23:30;0.90;99.90
3752;DHT22;50827;47.014;7.652;2023-01-28T04:25:57;1.00;99.90
3752;DHT22;50827;47.014;7.652;2023-01-28T04:28:23;0.90;99.90
3752;DHT22;50827;47.014;7.652;2023-01-28T04:30:53;1.00;99.90
3752;DHT22;50827;47.014;7.652;2023-01-28T04:33:20;1.00;99.90
3752;DHT22;50827;47.014;7.652;2023-01-28T04:35:46;1.00;99.90
3752;DHT22;50827;47.014;7.652;2023-01-28T04:38:13;1.00;99.90
3752;DHT22;50827;47.014;7.652;2023-01-28T04:40:40;1.00;99.90
3752;DHT22;50827;47.014;7.652;2023-01-28T04:43:07;1.00;99.90
3752;DHT22;50827;47.014;7.652;2023-01-28T04:45:34;1.00;99.90
3752;DHT22;50827;47.014;7.652;2023-01-28T04:48:00;1.00;99.90
3752;DHT22;50827;47.014;7.652;2023-01-28T04:50:27;1.00;99.90
3752;DHT22;50827;47.014;7.652;2023-01-28T04:52:54;1.10;99.90
3752;DHT22;50827;47.014;7.652;2023-01-28T04:55:20;1.10;99.90
3752;DHT22;50827;47.014;7.652;2023-01-28T04:57:47;1.00;99.90
3752;DHT22;50827;47.014;7.652;2023-01-28T05:00:14;1.00;99.90
3752;DHT22;50827;47.014;7.652;2023-01-28T05:02:41;1.00;99.90
3752;DHT22;50827;47.014;7.652;2023-01-28T05:05:08;1.00;99.90
3752;DHT22;50827;47.014;7.652;2023-01-28T05:07:35;1.10;99.90
3752;DHT22;50827;47.014;7.652;2023-01-28T05:10:02;0.90;99.90
3752;DHT22;50827;47.014;7.652;2023-01-28T05:12:29;0.80;99.90
3752;DHT22;50827;47.014;7.652;2023-01-28T05:14:58;0.80;99.90
3752;DHT22;50827;47.014;7.652;2023-01-28T05:17:27;0.80;99.90
3752;DHT22;50827;47.014;7.652;2023-01-28T05:19:54;0.80;99.90
3752;DHT22;50827;47.014;7.652;2023-01-28T05:22:20;0.70;99.90
3752;DHT22;50827;47.014;7.652;2023-01-28T05:24:47;0.70;99.90
3752;DHT22;50827;47.014;7.652;2023-01-28T05:27:14;0.80;99.90
3752;DHT22;50827;47.014;7.652;2023-01-28T05:29:40;0.80;99.90
3752;DHT22;50827;47.014;7.652;2023-01-28T05:32:07;0.80;99.90
3752;DHT22;50827;47.014;7.652;2023-01-28T05:34:34;0.90;99.90
3752;DHT22;50827;47.014;7.652;2023-01-28T05:37:00;0.80;99.90
3752;DHT22;50827;47.014;7.652;2023-01-28T05:39:27;0.80;99.90
3752;DHT22;50827;47.014;7.652;2023-01-28T05:41:53;0.90;99.90
3752;DHT22;50827;47.014;7.652;2023-01-28T05:44:20;0.80;99.90
3752;DHT22;50827;47.014;7.652;2023-01-28T05:46:47;0.70;99.90
3752;DHT22;50827;47.014;7.652;2023-01-28T05:49:13;0.70;99.90
3752;DHT22;50827;47.014;7.652;2023-01-28T05:51:40;0.80;99.90
3752;DHT22;50827;47.014;7.652;2023-01-28T05:54:08;0.80;99.90
3752;DHT22;50827;47.014;7.652;2023-01-28T05:56:35;0.70;99.90
3752;DHT22;50827;47.014;7.652;2023-01-28T05:59:03;0.70;99.90
3752;DHT22;50827;47.014;7.652;2023-01-28T06:01:29;0.70;99.90
3752;DHT22;50827;47.014;7.652;2023-01-28T06:03:56;0.70;99.90
3752;DHT22;50827;47.014;7.652;2023-01-28T06:06:23;0.80;99.90
3752;DHT22;50827;47.014;7.652;2023-01-28T06:08:49;0.70;99.90
3752;DHT22;50827;47.014;7.652;2023-01-28T06:11:16;0.70;99.90
3752;DHT22;50827;47.014;7.652;2023-01-28T06:13:45;0.80;99.90
3752;DHT22;50827;47.014;7.652;2023-01-28T06:16:11;0.70;99.90
3752;DHT22;50827;47.014;7.652;2023-01-28T06:18:38;0.80;99.90
3752;DHT22;50827;47.014;7.652;2023-01-28T06:21:07;0.70;99.90
3752;DHT22;50827;47.014;7.652;2023-01-28T06:23:33;0.70;99.90
3752;DHT22;50827;47.014;7.652;2023-01-28T06:26:00;0.70;99.90
3752;DHT22;50827;47.014;7.652;2023-01-28T06:28:27;0.80;99.90
3752;DHT22;50827;47.014;7.652;2023-01-28T06:30:54;0.80;99.90
3752;DHT22;50827;47.014;7.652;2023-01-28T06:33:21;0.80;99.90
3752;DHT22;50827;47.014;7.652;2023-01-28T06:35:47;0.80;99.90
3752;DHT22;50827;47.014;7.652;2023-01-28T06:38:14;0.70;99.90
3752;DHT22;50827;47.014;7.652;2023-01-28T06:40:41;0.80;99.90
3752;DHT22;50827;47.014;7.652;2023-01-28T06:43:07;0.80;99.90
3752;DHT22;50827;47.014;7.652;2023-01-28T06:45:34;0.70;99.90
3752;DHT22;50827;47.014;7.652;2023-01-28T06:48:01;0.70;99.90
3752;DHT22;50827;47.014;7.652;2023-01-28T06:50:29;0.70;99.90
3752;DHT22;50827;47.014;7.652;2023-01-28T06:52:56;0.70;99.90
3752;DHT22;50827;47.014;7.652;2023-01-28T06:55:23;0.60;99.90
3752;DHT22;50827;47.014;7.652;2023-01-28T06:57:49;0.60;99.90
3752;DHT22;50827;47.014;7.652;2023-01-28T07:00:16;0.60;99.90
3752;DHT22;50827;47.014;7.652;2023-01-28T07:02:44;0.60;99.90
3752;DHT22;50827;47.014;7.652;2023-01-28T07:05:11;0.60;99.90
3752;DHT22;50827;47.014;7.652;2023-01-28T07:07:37;0.60;99.90
3752;DHT22;50827;47.014;7.652;2023-01-28T07:10:08;0.60;99.90
3752;DHT22;50827;47.014;7.652;2023-01-28T07:12:34;0.70;99.90
3752;DHT22;50827;47.014;7.652;2023-01-28T07:15:01;0.70;99.90
3752;DHT22;50827;47.014;7.652;2023-01-28T07:17:28;0.70;99.90
3752;DHT22;50827;47.014;7.652;2023-01-28T07:19:54;0.80;99.90
3752;DHT22;50827;47.014;7.652;2023-01-28T07:22:21;0.70;99.90
3752;DHT22;50827;47.014;7.652;2023-01-28T07:24:48;0.70;99.90
3752;DHT22;50827;47.014;7.652;2023-01-28T07:27:14;0.70;99.90
3752;DHT22;50827;47.014;7.652;2023-01-28T07:29:41;0.70;99.90
3752;DHT22;50827;47.014;7.652;2023-01-28T07:32:08;0.70;99.90
3752;DHT22;50827;47.014;7.652;2023-01-28T07:34:34;0.70;99.90
3752;DHT22;50827;47.014;7.652;2023-01-28T07:37:05;0.70;99.90
3752;DHT22;50827;47.014;7.652;2023-01-28T07:39:32;0.60;99.90
3752;DHT22;50827;47.014;7.652;2023-01-28T07:42:00;0.60;99.90
3752;DHT22;50827;47.014;7.652;2023-01-28T07:44:27;0.70;99.90
3752;DHT22;50827;47.014;7.652;2023-01-28T07:46:53;0.70;99.90
3752;DHT22;50827;47.014;7.652;2023-01-28T07:49:20;0.60;99.90
3752;DHT22;50827;47.014;7.652;2023-01-28T07:51:47;0.70;99.90
3752;DHT22;50827;47.014;7.652;2023-01-28T07:54:16;0.60;99.90
3752;DHT22;50827;47.014;7.652;2023-01-28T07:56:42;0.70;99.90
3752;DHT22;50827;47.014;7.652;2023-01-28T07:59:09;0.60;99.90
3752;DHT22;50827;47.014;7.652;2023-01-28T08:01:35;0.60;99.90
3752;DHT22;50827;47.014;7.652;2023-01-28T08:04:02;0.60;99.90
3752;DHT22;50827;47.014;7.652;2023-01-28T08:06:29;0.70;99.90
3752;DHT22;50827;47.014;7.652;2023-01-28T08:08:56;0.80;99.90
3752;DHT22;50827;47.014;7.652;2023-01-28T08:11:23;0.70;99.90
3752;DHT22;50827;47.014;7.652;2023-01-28T08:13:49;0.70;99.90
3752;DHT22;50827;47.014;7.652;2023-01-28T08:16:16;0.80;99.90
3752;DHT22;50827;47.014;7.652;2023-01-28T08:18:43;0.80;99.90
3752;DHT22;50827;47.014;7.652;2023-01-28T08:21:09;0.80;99.90
3752;DHT22;50827;47.014;7.652;2023-01-28T08:23:36;0.90;99.90
3752;DHT22;50827;47.014;7.652;2023-01-28T08:26:03;0.90;99.90
3752;DHT22;50827;47.014;7.652;2023-01-28T08:28:30;0.90;99.90
3752;DHT22;50827;47.014;7.652;2023-01-28T08:31:00;0.90;99.90
3752;DHT22;50827;47.014;7.652;2023-01-28T08:33:27;0.90;99.90
3752;DHT22;50827;47.014;7.652;2023-01-28T08:35:54;0.90;99.90
3752;DHT22;50827;47.014;7.652;2023-01-28T08:38:21;0.90;99.90
3752;DHT22;50827;47.014;7.652;2023-01-28T08:40:48;0.90;99.90
3752;DHT22;50827;47.014;7.652;2023-01-28T08:43:21;0.90;99.90
3752;DHT22;50827;47.014;7.652;2023-01-28T08:45:47;1.00;99.90
3752;DHT22;50827;47.014;7.652;2023-01-28T08:48:15;1.00;99.90
3752;DHT22;50827;47.014;7.652;2023-01-28T08:50:42;1.00;99.90
3752;DHT22;50827;47.014;7.652;2023-01-28T08:53:12;1.00;99.90
3752;DHT22;50827;47.014;7.652;2023-01-28T08:55:39;1.10;99.90
3752;DHT22;50827;47.014;7.652;2023-01-28T08:58:09;1.00;99.90
3752;DHT22;50827;47.014;7.652;2023-01-28T09:00:37;1.10;99.90
3752;DHT22;50827;47.014;7.652;2023-01-28T09:03:04;1.20;99.90
3752;DHT22;50827;47.014;7.652;2023-01-28T09:05:33;1.10;99.90
3752;DHT22;50827;47.014;7.652;2023-01-28T09:08:02;1.10;99.90
3752;DHT22;50827;47.014;7.652;2023-01-28T09:10:29;1.10;99.90
3752;DHT22;50827;47.014;7.652;2023-01-28T09:12:56;1.10;99.90
3752;DHT22;50827;47.014;7.652;2023-01-28T09:15:22;1.10;99.90
3752;DHT22;50827;47.014;7.652;2023-01-28T09:17:49;1.10;99.90
3752;DHT22;50827;47.014;7.652;2023-01-28T09:20:16;1.20;99.90
3752;DHT22;50827;47.014;7.652;2023-01-28T09:22:43;1.20;99.90
3752;DHT22;50827;47.014;7.652;2023-01-28T09:25:10;1.10;99.90
3752;DHT22;50827;47.014;7.652;2023-01-28T09:27:36;1.20;99.90
3752;DHT22;50827;47.014;7.652;2023-01-28T09:30:03;1.30;99.90
3752;DHT22;50827;47.014;7.652;2023-01-28T09:32:30;1.30;99.90
3752;DHT22;50827;47.014;7.652;2023-01-28T09:34:57;1.40;99.90
3752;DHT22;50827;47.014;7.652;2023-01-28T09:37:23;1.40;99.90
3752;DHT22;50827;47.014;7.652;2023-01-28T09:39:50;1.40;99.90
3752;DHT22;50827;47.014;7.652;2023-01-28T09:45:05;1.30;99.90
3752;DHT22;50827;47.014;7.652;2023-01-28T09:50:12;1.40;99.90
3752;DHT22;50827;47.014;7.652;2023-01-28T09:52:41;1.40;99.90
3752;DHT22;50827;47.014;7.652;2023-01-28T09:55:16;1.40;99.90
3752;DHT22;50827;47.014;7.652;2023-01-28T09:57:51;1.40;99.90
3752;DHT22;50827;47.014;7.652;2023-01-28T10:00:23;1.30;99.90
3752;DHT22;50827;47.014;7.652;2023-01-28T10:03:08;1.30;99.90
3752;DHT22;50827;47.014;7.652;2023-01-28T10:09:13;1.30;99.90
3752;DHT22;50827;47.014;7.652;2023-01-28T10:14:47;1.30;99.90
3752;DHT22;50827;47.014;7.652;2023-01-28T10:17:29;1.20;99.90
3752;DHT22;50827;47.014;7.652;2023-01-28T10:20:22;1.30;99.90
3752;DHT22;50827;47.014;7.652;2023-01-28T10:22:59;1.40;99.90
3752;DHT22;50827;47.014;7.652;2023-01-28T10:25:29;1.30;99.90
3752;DHT22;50827;47.014;7.652;2023-01-28T10:27:56;1.40;99.90
3752;DHT22;50827;47.014;7.652;2023-01-28T10:30:26;1.40;99.90
3752;DHT22;50827;47.014;7.652;2023-01-28T10:33:05;1.30;99.90
3752;DHT22;50827;47.014;7.652;2023-01-28T10:35:38;1.40;99.90
3752;DHT22;50827;47.014;7.652;2023-01-28T10:38:08;1.40;99.90
3752;DHT22;50827;47.014;7.652;2023-01-28T10:40:37;1.50;99.90
3752;DHT22;50827;47.014;7.652;2023-01-28T10:43:05;1.50;99.90
3752;DHT22;50827;47.014;7.652;2023-01-28T10:45:39;1.50;99.90
3752;DHT22;50827;47.014;7.652;2023-01-28T10:50:52;1.70;99.90
3752;DHT22;50827;47.014;7.652;2023-01-28T10:53:19;1.60;99.90
3752;DHT22;50827;47.014;7.652;2023-01-28T10:55:57;1.60;99.90
3752;DHT22;50827;47.014;7.652;2023-01-28T10:58:27;1.60;99.90
3752;DHT22;50827;47.014;7.652;2023-01-28T11:01:00;1.50;99.90
3752;DHT22;50827;47.014;7.652;2023-01-28T11:03:28;1.50;99.90
3752;DHT22;50827;47.014;7.652;2023-01-28T11:06:01;1.60;99.90
3752;DHT22;50827;47.014;7.652;2023-01-28T11:08:29;1.60;99.90
3752;DHT22;50827;47.014;7.652;2023-01-28T11:10:56;1.60;99.90
3752;DHT22;50827;47.014;7.652;2023-01-28T11:13:26;1.60;99.90
3752;DHT22;50827;47.014;7.652;2023-01-28T11:16:04;1.60;99.90
3752;DHT22;50827;47.014;7.652;2023-01-28T11:18:38;1.70;99.90
3752;DHT22;50827;47.014;7.652;2023-01-28T11:21:20;1.60;99.90
3752;DHT22;50827;47.014;7.652;2023-01-28T11:23:49;1.60;99.90
3752;DHT22;50827;47.014;7.652;2023-01-28T11:26:20;1.70;99.90
3752;DHT22;50827;47.014;7.652;2023-01-28T11:28:48;1.60;99.90
3752;DHT22;50827;47.014;7.652;2023-01-28T11:31:17;1.70;99.90
3752;DHT22;50827;47.014;7.652;2023-01-28T11:33:46;1.70;99.90
3752;DHT22;50827;47.014;7.652;2023-01-28T11:36:17;1.80;99.90
3752;DHT22;50827;47.014;7.652;2023-01-28T11:39:17;1.90;99.90
3752;DHT22;50827;47.014;7.652;2023-01-28T11:41:46;1.90;99.90
3752;DHT22;50827;47.014;7.652;2023-01-28T11:44:20;1.90;99.90
3752;DHT22;50827;47.014;7.652;2023-01-28T11:49:42;1.90;99.90
3752;DHT22;50827;47.014;7.652;2023-01-28T11:58:37;1.90;99.90
3752;DHT22;50827;47.014;7.652;2023-01-28T12:01:13;1.90;99.90
3752;DHT22;50827;47.014;7.652;2023-01-28T12:04:19;1.90;99.90
3752;DHT22;50827;47.014;7.652;2023-01-28T12:12:37;1.90;99.90
3752;DHT22;50827;47.014;7.652;2023-01-28T12:15:25;1.90;99.90
3752;DHT22;50827;47.014;7.652;2023-01-28T12:18:07;2.00;99.90
3752;DHT22;50827;47.014;7.652;2023-01-28T12:20:56;1.90;99.90
3752;DHT22;50827;47.014;7.652;2023-01-28T12:26:12;2.00;99.90
3752;DHT22;50827;47.014;7.652;2023-01-28T12:28:49;2.00;99.90
3752;DHT22;50827;47.014;7.652;2023-01-28T12:39:58;1.90;99.90
3752;DHT22;50827;47.014;7.652;2023-01-28T12:42:39;1.80;99.90
3752;DHT22;50827;47.014;7.652;2023-01-28T12:45:26;1.70;99.90
3752;DHT22;50827;47.014;7.652;2023-01-28T12:48:00;1.80;99.90
3752;DHT22;50827;47.014;7.652;2023-01-28T12:50:33;1.70;99.90
3752;DHT22;50827;47.014;7.652;2023-01-28T12:53:27;1.70;99.90
3752;DHT22;50827;47.014;7.652;2023-01-28T12:56:15;1.80;99.90
3752;DHT22;50827;47.014;7.652;2023-01-28T13:01:23;1.80;99.90
3752;DHT22;50827;47.014;7.652;2023-01-28T13:07:05;1.70;99.90
3752;DHT22;50827;47.014;7.652;2023-01-28T13:09:35;1.80;99.90
3752;DHT22;50827;47.014;7.652;2023-01-28T13:12:04;1.80;99.90
3752;DHT22;50827;47.014;7.652;2023-01-28T13:14:32;1.70;99.90
3752;DHT22;50827;47.014;7.652;2023-01-28T13:17:22;1.60;99.90
3752;DHT22;50827;47.014;7.652;2023-01-28T13:19:50;1.60;99.90
3752;DHT22;50827;47.014;7.652;2023-01-28T13:22:32;1.60;99.90
3752;DHT22;50827;47.014;7.652;2023-01-28T13:25:25;1.60;99.90
3752;DHT22;50827;47.014;7.652;2023-01-28T13:28:01;1.70;99.90
3752;DHT22;50827;47.014;7.652;2023-01-28T13:30:31;1.70;99.90
3752;DHT22;50827;47.014;7.652;2023-01-28T13:33:05;1.80;99.90
3752;DHT22;50827;47.014;7.652;2023-01-28T13:35:37;1.80;99.90
3752;DHT22;50827;47.014;7.652;2023-01-28T13:38:13;1.90;99.90
3752;DHT22;50827;47.014;7.652;2023-01-28T13:40:42;1.90;99.90
3752;DHT22;50827;47.014;7.652;2023-01-28T13:46:11;1.80;99.90
3752;DHT22;50827;47.014;7.652;2023-01-28T13:48:48;1.70;99.90
3752;DHT22;50827;47.014;7.652;2023-01-28T13:51:32;1.80;99.90
3752;DHT22;50827;47.014;7.652;2023-01-28T13:54:15;1.70;99.90
3752;DHT22;50827;47.014;7.652;2023-01-28T13:57:04;1.80;99.90
3752;DHT22;50827;47.014;7.652;2023-01-28T13:59:44;1.70;99.90
3752;DHT22;50827;47.014;7.652;2023-01-28T14:02:50;1.80;99.90
3752;DHT22;50827;47.014;7.652;2023-01-28T14:19:51;1.80;99.90
3752;DHT22;50827;47.014;7.652;2023-01-28T14:22:20;1.80;99.90
3752;DHT22;50827;47.014;7.652;2023-01-28T14:24:47;1.90;99.90
3752;DHT22;50827;47.014;7.652;2023-01-28T14:27:31;1.70;99.90
3752;DHT22;50827;47.014;7.652;2023-01-28T14:30:10;1.90;99.90
3752;DHT22;50827;47.014;7.652;2023-01-28T14:32:46;1.90;99.90
3752;DHT22;50827;47.014;7.652;2023-01-28T14:35:18;1.90;99.90
3752;DHT22;50827;47.014;7.652;2023-01-28T14:37:46;2.00;99.90
3752;DHT22;50827;47.014;7.652;2023-01-28T14:40:16;1.90;99.90
3752;DHT22;50827;47.014;7.652;2023-01-28T14:42:46;1.90;99.90
3752;DHT22;50827;47.014;7.652;2023-01-28T14:45:37;1.90;99.90
3752;DHT22;50827;47.014;7.652;2023-01-28T14:51:35;2.00;99.90
3752;DHT22;50827;47.014;7.652;2023-01-28T14:54:36;2.00;99.90
3752;DHT22;50827;47.014;7.652;2023-01-28T14:59:55;1.90;99.90
3752;DHT22;50827;47.014;7.652;2023-01-28T15:02:29;1.90;99.90
3752;DHT22;50827;47.014;7.652;2023-01-28T15:05:15;1.80;99.90
3752;DHT22;50827;47.014;7.652;2023-01-28T15:07:43;1.80;99.90
3752;DHT22;50827;47.014;7.652;2023-01-28T15:10:15;1.80;99.90
3752;DHT22;50827;47.014;7.652;2023-01-28T15:12:53;1.90;99.90
3752;DHT22;50827;47.014;7.652;2023-01-28T15:15:34;1.90;99.90
3752;DHT22;50827;47.014;7.652;2023-01-28T15:18:15;2.00;99.90
3752;DHT22;50827;47.014;7.652;2023-01-28T15:20:46;1.90;99.90
3752;DHT22;50827;47.014;7.652;2023-01-28T15:23:15;1.90;99.90
3752;DHT22;50827;47.014;7.652;2023-01-28T15:25:47;1.90;99.90
3752;DHT22;50827;47.014;7.652;2023-01-28T15:28:27;1.90;99.90
3752;DHT22;50827;47.014;7.652;2023-01-28T15:30:55;1.90;99.90
3752;DHT22;50827;47.014;7.652;2023-01-28T15:33:22;1.90;99.90
3752;DHT22;50827;47.014;7.652;2023-01-28T15:35:52;1.90;99.90
3752;DHT22;50827;47.014;7.652;2023-01-28T15:38:20;1.90;99.90
3752;DHT22;50827;47.014;7.652;2023-01-28T15:40:58;1.90;99.90
3752;DHT22;50827;47.014;7.652;2023-01-28T15:43:28;1.90;99.90
3752;DHT22;50827;47.014;7.652;2023-01-28T15:45:57;1.90;99.90
3752;DHT22;50827;47.014;7.652;2023-01-28T15:48:26;1.90;99.90
3752;DHT22;50827;47.014;7.652;2023-01-28T15:53:24;1.90;99.90
3752;DHT22;50827;47.014;7.652;2023-01-28T15:56:06;1.80;99.90
3752;DHT22;50827;47.014;7.652;2023-01-28T15:58:33;1.80;99.90
3752;DHT22;50827;47.014;7.652;2023-01-28T16:03:40;1.90;99.90
3752;DHT22;50827;47.014;7.652;2023-01-28T16:06:11;1.90;99.90
3752;DHT22;50827;47.014;7.652;2023-01-28T16:08:46;1.90;99.90
3752;DHT22;50827;47.014;7.652;2023-01-28T16:11:25;1.90;99.90
3752;DHT22;50827;47.014;7.652;2023-01-28T16:13:53;1.90;99.90
3752;DHT22;50827;47.014;7.652;2023-01-28T16:16:36;1.90;99.90
3752;DHT22;50827;47.014;7.652;2023-01-28T16:19:05;1.80;99.90
3752;DHT22;50827;47.014;7.652;2023-01-28T16:21:36;1.80;99.90
3752;DHT22;50827;47.014;7.652;2023-01-28T16:24:24;1.80;99.90
3752;DHT22;50827;47.014;7.652;2023-01-28T16:26:59;1.80;99.90
3752;DHT22;50827;47.014;7.652;2023-01-28T16:29:28;1.90;99.90
3752;DHT22;50827;47.014;7.652;2023-01-28T16:31:57;1.80;99.90
3752;DHT22;50827;47.014;7.652;2023-01-28T16:34:25;1.90;99.90
3752;DHT22;50827;47.014;7.652;2023-01-28T16:36:59;1.90;99.90
3752;DHT22;50827;47.014;7.652;2023-01-28T16:39:26;1.90;99.90
3752;DHT22;50827;47.014;7.652;2023-01-28T16:41:52;1.80;99.90
3752;DHT22;50827;47.014;7.652;2023-01-28T16:44:22;1.90;99.90
3752;DHT22;50827;47.014;7.652;2023-01-28T16:46:48;1.90;99.90
3752;DHT22;50827;47.014;7.652;2023-01-28T16:49:15;1.90;99.90
3752;DHT22;50827;47.014;7.652;2023-01-28T16:51:42;1.90;99.90
3752;DHT22;50827;47.014;7.652;2023-01-28T16:54:11;1.90;99.90
3752;DHT22;50827;47.014;7.652;2023-01-28T16:56:40;1.90;99.90
3752;DHT22;50827;47.014;7.652;2023-01-28T16:59:13;1.90;99.90
3752;DHT22;50827;47.014;7.652;2023-01-28T17:01:44;2.00;99.90
3752;DHT22;50827;47.014;7.652;2023-01-28T17:04:12;2.00;99.90
3752;DHT22;50827;47.014;7.652;2023-01-28T17:06:42;2.00;99.90
3752;DHT22;50827;47.014;7.652;2023-01-28T17:09:11;1.90;99.90
3752;DHT22;50827;47.014;7.652;2023-01-28T17:11:38;1.90;99.90
3752;DHT22;50827;47.014;7.652;2023-01-28T17:14:05;1.90;99.90
3752;DHT22;50827;47.014;7.652;2023-01-28T17:16:32;1.80;99.90
3752;DHT22;50827;47.014;7.652;2023-01-28T17:18:59;1.80;99.90
3752;DHT22;50827;47.014;7.652;2023-01-28T17:21:26;1.80;99.90
3752;DHT22;50827;47.014;7.652;2023-01-28T17:23:52;1.80;99.90
3752;DHT22;50827;47.014;7.652;2023-01-28T17:26:19;1.80;99.90
3752;DHT22;50827;47.014;7.652;2023-01-28T17:28:51;1.80;99.90
3752;DHT22;50827;47.014;7.652;2023-01-28T17:31:19;1.90;99.90
3752;DHT22;50827;47.014;7.652;2023-01-28T17:33:46;1.90;99.90
3752;DHT22;50827;47.014;7.652;2023-01-28T17:36:13;1.70;99.90
3752;DHT22;50827;47.014;7.652;2023-01-28T17:38:43;1.70;99.90
3752;DHT22;50827;47.014;7.652;2023-01-28T17:41:10;1.80;99.90
3752;DHT22;50827;47.014;7.652;2023-01-28T17:43:38;1.80;99.90
3752;DHT22;50827;47.014;7.652;2023-01-28T17:46:15;1.80;99.90
3752;DHT22;50827;47.014;7.652;2023-01-28T17:48:42;1.80;99.90
3752;DHT22;50827;47.014;7.652;2023-01-28T17:51:12;1.80;99.90
3752;DHT22;50827;47.014;7.652;2023-01-28T17:53:39;1.90;99.90
3752;DHT22;50827;47.014;7.652;2023-01-28T17:56:17;1.90;99.90
3752;DHT22;50827;47.014;7.652;2023-01-28T17:58:51;1.90;99.90
3752;DHT22;50827;47.014;7.652;2023-01-28T18:01:19;1.80;99.90